Time;durP1;ratioP1;P1;durP2;ratioP2;P2;SDS_P1;SDS_P2;PMS_P1;PMS_P2;Temp;Humidity;BMP_temperature;BMP_pressure;BME280_temperature;BME280_humidity;BME280_pressure;Samples;Min_cycle;Max_cycle;Signal;HPM_P1;HPM_P2
2022/10/28 00:01:09;;;;;;;10.32;3.55;;;;;;;14.82;100.00;100192.53;4918846;29;20063;-90
2022/10/28 00:03:44;;;;;;;9.52;3.20;;;;;;;14.95;100.00;100185.50;4916580;29;20087;-91
2022/10/28 00:06:13;;;;;;;9.15;3.45;;;;;;;14.88;100.00;100194.75;4932610;29;20682;-92
2022/10/28 00:08:41;;;;;;;11.82;4.57;;;;;;;14.80;100.00;100186.47;4919660;29;20137;-91
2022/10/28 00:11:14;;;;;;;6.93;2.53;;;;;;;14.93;100.00;100207.66;4935488;29;20490;-92
2022/10/28 00:13:42;;;;;;;8.52;2.90;;;;;;;14.69;100.00;100184.53;4916823;29;20391;-92
2022/10/28 00:16:27;;;;;;;8.65;2.97;;;;;;;14.91;100.00;100202.47;4920309;29;20454;-92
2022/10/28 00:18:54;;;;;;;6.93;2.20;;;;;;;14.79;100.00;100190.91;4935898;29;20085;-92
2022/10/28 00:21:24;;;;;;;8.68;2.70;;;;;;;14.72;100.00;100191.41;4936422;29;20387;-92
2022/10/28 00:23:51;;;;;;;9.38;3.72;;;;;;;14.55;100.00;100184.53;4935771;29;20059;-91
2022/10/28 00:26:21;;;;;;;8.68;3.70;;;;;;;14.76;100.00;100220.09;4920012;29;20111;-91
2022/10/28 00:28:50;;;;;;;8.57;3.30;;;;;;;14.65;100.00;100212.03;4935180;29;20055;-92
2022/10/28 00:31:19;;;;;;;6.90;2.78;;;;;;;14.81;100.00;100241.72;4920095;29;20734;-92
2022/10/28 00:33:46;;;;;;;8.13;2.90;;;;;;;14.59;100.00;100217.69;4919906;29;20055;-91
2022/10/28 00:36:20;;;;;;;8.13;3.03;;;;;;;14.86;100.00;100243.25;4919558;29;20044;-92
2022/10/28 00:38:48;;;;;;;8.23;2.55;;;;;;;14.84;100.00;100216.13;4935068;29;20450;-91
2022/10/28 00:41:18;;;;;;;5.97;2.25;;;;;;;14.94;100.00;100246.22;4935081;29;20474;-91
2022/10/28 00:43:51;;;;;;;8.68;2.80;;;;;;;14.68;100.00;100218.88;4921958;29;20051;-91
2022/10/28 00:46:36;;;;;;;10.57;2.50;;;;;;;14.80;100.00;100242.69;4908966;29;20047;-91
2022/10/28 00:49:11;;;;;;;8.15;2.42;;;;;;;14.76;100.00;100248.22;4922513;29;20079;-91
2022/10/28 00:51:38;;;;;;;7.93;2.55;;;;;;;14.43;100.00;100194.06;4922522;29;20048;-91
2022/10/28 00:54:06;;;;;;;6.05;2.53;;;;;;;14.66;100.00;100197.06;4938613;29;20052;-91
2022/10/28 00:56:39;;;;;;;7.63;2.63;;;;;;;14.57;100.00;100177.38;4922095;29;20078;-92
2022/10/28 00:59:12;;;;;;;6.40;2.60;;;;;;;14.64;100.00;100204.22;4922379;29;20052;-92
2022/10/28 01:01:38;;;;;;;6.25;2.33;;;;;;;14.56;100.00;100192.34;4909778;29;20103;-91
2022/10/28 01:04:07;;;;;;;10.27;2.65;;;;;;;14.46;100.00;100169.31;4922346;29;20067;-91
2022/10/28 01:06:34;;;;;;;7.32;2.20;;;;;;;14.57;100.00;100178.22;4921497;29;20048;-91
2022/10/28 01:09:00;;;;;;;5.38;2.15;;;;;;;14.35;100.00;100155.00;4921164;29;20090;-91
2022/10/28 01:12:01;;;;;;;7.25;2.10;;;;;;;14.56;100.00;100202.03;4921490;29;20056;-91
2022/10/28 01:14:53;;;;;;;7.63;2.75;;;;;;;14.56;100.00;100202.03;4942584;29;20103;-91
2022/10/28 01:17:49;;;;;;;7.03;2.47;;;;;;;14.63;100.00;100192.00;4927022;29;20093;-91
2022/10/28 01:21:07;;;;;;;9.43;2.20;;;;;;;14.60;100.00;100198.28;4920835;29;20060;-91
2022/10/28 01:23:36;;;;;;;6.05;2.35;;;;;;;14.65;100.00;100190.09;4900297;29;20066;-91
2022/10/28 01:26:36;;;;;;;6.53;2.40;;;;;;;14.63;100.00;100181.47;4937154;29;20052;-92
2022/10/28 01:29:22;;;;;;;13.55;3.05;;;;;;;14.55;100.00;100190.63;4937382;29;21551;-91
2022/10/28 01:31:53;;;;;;;7.93;2.85;;;;;;;14.50;100.00;100165.53;4936400;29;20051;-91
2022/10/28 01:34:26;;;;;;;8.95;3.20;;;;;;;14.63;100.00;100171.75;4920716;29;20059;-91
2022/10/28 01:37:16;;;;;;;9.07;3.58;;;;;;;14.48;100.00;100165.63;4937964;29;20095;-91
2022/10/28 01:39:48;;;;;;;8.05;3.38;;;;;;;14.71;100.00;100152.81;4927941;29;20649;-91
2022/10/28 01:42:26;;;;;;;10.85;4.38;;;;;;;14.47;100.00;100139.41;4920749;29;20052;-90
2022/10/28 01:45:05;;;;;;;11.13;4.25;;;;;;;14.71;100.00;100161.56;4936317;29;20118;-91
2022/10/28 01:47:57;;;;;;;8.38;4.00;;;;;;;14.64;100.00;100168.16;4920547;29;20063;-91
2022/10/28 01:50:34;;;;;;;9.95;3.53;;;;;;;14.75;100.00;100170.09;4940487;29;20073;-90
2022/10/28 01:53:08;;;;;;;10.88;3.28;;;;;;;14.69;100.00;100159.97;4936531;29;20107;-91
2022/10/28 01:55:41;;;;;;;6.85;2.92;;;;;;;14.71;100.00;100166.00;4944948;29;20078;-91
2022/10/28 01:58:12;;;;;;;10.43;3.28;;;;;;;14.62;100.00;100133.16;4935754;29;20454;-91
2022/10/28 02:00:41;;;;;;;8.15;3.35;;;;;;;14.55;100.00;100098.44;4936246;29;20103;-90
2022/10/28 02:03:09;;;;;;;8.05;2.60;;;;;;;14.85;100.00;100144.03;4920595;29;20098;-91
2022/10/28 02:05:51;;;;;;;8.65;2.78;;;;;;;14.69;100.00;100128.34;4936266;29;20114;-91
2022/10/28 02:08:40;;;;;;;7.85;2.83;;;;;;;14.74;100.00;100136.81;4920842;29;20052;-90
2022/10/28 02:11:38;;;;;;;7.53;2.50;;;;;;;14.81;100.00;100136.31;4931910;29;20110;-92
2022/10/28 02:14:16;;;;;;;5.93;2.10;;;;;;;14.87;100.00;100140.31;4936913;29;20604;-92
2022/10/28 02:16:58;;;;;;;6.35;2.22;;;;;;;14.72;100.00;100097.38;4935770;29;20095;-91
2022/10/28 02:19:52;;;;;;;8.05;2.00;;;;;;;15.00;100.00;100145.66;4918321;29;20043;-92
2022/10/28 02:22:26;;;;;;;4.80;1.80;;;;;;;14.77;100.00;100112.91;4920973;29;20072;-91
2022/10/28 02:25:07;;;;;;;8.10;2.60;;;;;;;15.03;100.00;100148.09;4921123;29;20509;-91
2022/10/28 02:27:43;;;;;;;5.72;2.08;;;;;;;14.59;100.00;100099.13;4920860;29;20060;-91
2022/10/28 02:30:14;;;;;;;6.60;2.28;;;;;;;15.09;100.00;100134.50;4939110;29;20460;-91
2022/10/28 02:32:45;;;;;;;6.28;1.77;;;;;;;14.98;100.00;100132.59;4936194;29;20111;-91
2022/10/28 02:35:19;;;;;;;5.68;1.73;;;;;;;14.87;100.00;100111.34;4936448;29;20162;-91
2022/10/28 02:37:49;;;;;;;6.07;1.92;;;;;;;14.94;100.00;100139.00;4920398;29;20099;-91
2022/10/28 02:40:22;;;;;;;7.85;2.42;;;;;;;14.85;100.00;100121.13;4935719;29;20082;-91
2022/10/28 02:42:54;;;;;;;8.30;2.50;;;;;;;14.80;100.00;100104.78;4920167;29;20486;-91
2022/10/28 02:45:27;;;;;;;8.13;2.30;;;;;;;14.78;100.00;100109.31;4919857;29;20118;-91
2022/10/28 02:47:58;;;;;;;6.63;2.27;;;;;;;14.60;100.00;100080.56;4919358;29;20495;-91
2022/10/28 02:50:32;;;;;;;5.50;1.63;;;;;;;14.96;100.00;100130.97;4918503;29;20123;-91
2022/10/28 02:53:03;;;;;;;6.85;1.80;;;;;;;14.55;100.00;100085.25;4934545;29;20111;-90
2022/10/28 02:55:37;;;;;;;4.57;1.77;;;;;;;14.80;100.00;100118.81;4934540;29;20468;-90
2022/10/28 02:58:04;;;;;;;5.72;1.95;;;;;;;14.65;100.00;100105.78;4919273;29;20055;-91
2022/10/28 03:00:31;;;;;;;5.90;1.92;;;;;;;14.60;100.00;100108.72;4932987;29;20059;-91
2022/10/28 03:02:58;;;;;;;4.68;1.73;;;;;;;14.50;100.00;100105.81;4919311;29;20051;-91
2022/10/28 03:05:25;;;;;;;4.05;1.63;;;;;;;14.68;100.00;100124.88;4919185;29;20550;-91
2022/10/28 03:07:56;;;;;;;5.28;1.73;;;;;;;14.55;100.00;100102.84;4935780;29;20047;-91
2022/10/28 03:10:26;;;;;;;2.92;1.30;;;;;;;14.40;100.00;100076.56;4933777;29;20448;-91
2022/10/28 03:12:59;;;;;;;5.35;1.60;;;;;;;14.58;100.00;100106.19;4918540;29;20471;-90
2022/10/28 03:15:26;;;;;;;4.30;1.50;;;;;;;14.44;100.00;100078.06;4931005;29;20055;-91
2022/10/28 03:17:53;;;;;;;4.15;1.60;;;;;;;14.45;100.00;100078.91;4918396;29;20039;-91
2022/10/28 03:20:20;;;;;;;3.03;1.48;;;;;;;14.36;100.00;100068.94;4933264;29;20047;-90
2022/10/28 03:22:47;;;;;;;5.18;1.58;;;;;;;13.99;100.00;100031.81;4919168;29;20052;-91
2022/10/28 03:25:14;;;;;;;5.65;1.70;;;;;;;14.05;100.00;100055.09;4919030;29;20122;-91
2022/10/28 03:27:40;;;;;;;4.20;1.65;;;;;;;13.89;100.00;100025.44;4918274;29;20048;-91
2022/10/28 03:30:07;;;;;;;3.20;1.48;;;;;;;14.22;100.00;100077.75;4918360;29;20051;-91
2022/10/28 03:32:34;;;;;;;4.00;1.23;;;;;;;14.13;100.00;100033.56;4934545;29;20114;-91
2022/10/28 03:35:01;;;;;;;3.95;1.35;;;;;;;14.02;100.00;100024.56;4919145;29;20062;-91
2022/10/28 03:37:27;;;;;;;4.75;1.63;;;;;;;13.91;100.00;100024.38;4912590;29;20118;-91
2022/10/28 03:39:54;;;;;;;5.03;1.92;;;;;;;13.79;100.00;100010.22;4918323;29;20111;-91
2022/10/28 03:42:21;;;;;;;7.22;1.67;;;;;;;13.74;100.00;100027.22;4918856;29;20494;-91
2022/10/28 03:44:48;;;;;;;4.40;1.38;;;;;;;13.58;100.00;99998.38;4918645;29;20118;-91
2022/10/28 03:47:14;;;;;;;3.47;1.30;;;;;;;13.76;100.00;100020.94;4921273;29;20055;-92
2022/10/28 03:49:41;;;;;;;4.22;1.23;;;;;;;13.85;100.00;100022.16;4933864;29;20486;-90
2022/10/28 03:52:08;;;;;;;4.07;1.58;;;;;;;13.91;100.00;100020.91;4918878;29;20123;-91
2022/10/28 03:54:34;;;;;;;8.30;2.25;;;;;;;14.04;100.00;100045.50;4905557;29;20044;-91
2022/10/28 03:57:01;;;;;;;4.18;1.67;;;;;;;13.83;100.00;100021.41;4918332;29;20055;-91
2022/10/28 03:59:28;;;;;;;4.70;1.30;;;;;;;13.85;100.00;100025.63;4917423;29;20047;-91
2022/10/28 04:01:55;;;;;;;4.32;1.50;;;;;;;13.75;100.00;100013.97;4918279;29;20052;-91
2022/10/28 04:04:22;;;;;;;4.40;1.30;;;;;;;13.70;100.00;100025.72;4918079;29;20051;-91
2022/10/28 04:06:55;;;;;;;;;;;;;;;14.02;100.00;100052.66;4920503;29;20054;-91
2022/10/28 04:09:21;;;;;;;3.70;1.30;;;;;;;13.76;100.00;100039.34;4935159;29;19966;-90
2022/10/28 04:11:48;;;;;;;6.10;1.92;;;;;;;13.56;100.00;100010.78;4932014;29;20052;-91
2022/10/28 04:14:15;;;;;;;5.70;1.65;;;;;;;13.83;100.00;100009.09;4918281;29;20055;-91
2022/10/28 04:16:42;;;;;;;8.18;2.85;;;;;;;13.97;100.00;100036.31;4918745;29;20059;-91
2022/10/28 04:19:08;;;;;;;6.57;2.03;;;;;;;14.08;100.00;100023.34;4938041;29;20056;-91
2022/10/28 04:21:35;;;;;;;5.55;1.88;;;;;;;13.94;100.00;100008.41;4938626;29;20056;-91
2022/10/28 04:24:02;;;;;;;4.57;1.73;;;;;;;14.23;100.00;100037.28;4922865;29;20052;-91
2022/10/28 04:26:30;;;;;;;5.25;1.85;;;;;;;14.22;100.00;100035.63;4923339;29;20043;-92
2022/10/28 04:28:57;;;;;;;5.82;1.88;;;;;;;14.08;100.00;100011.94;4921491;29;20570;-92
2022/10/28 04:31:24;;;;;;;4.13;1.40;;;;;;;14.11;100.00;100002.09;4922123;29;20059;-91
2022/10/28 04:33:50;;;;;;;6.63;2.13;;;;;;;14.33;100.00;100019.13;4922181;29;20051;-91
2022/10/28 04:36:18;;;;;;;7.70;1.98;;;;;;;14.32;100.00;100009.53;4922801;29;20066;-91
2022/10/28 04:38:44;;;;;;;8.40;2.33;;;;;;;14.03;100.00;99980.66;4922116;29;20509;-91
2022/10/28 04:41:13;;;;;;;8.10;2.08;;;;;;;14.12;100.00;100003.75;4922786;29;20056;-91
2022/10/28 04:43:40;;;;;;;8.63;2.30;;;;;;;13.97;100.00;99989.81;4937682;29;20059;-90
2022/10/28 04:46:06;;;;;;;8.95;3.05;;;;;;;13.71;100.00;99951.97;4922063;29;20114;-90
2022/10/28 04:48:34;;;;;;;9.93;2.92;;;;;;;13.83;100.00;99969.63;4921447;29;20052;-91
2022/10/28 04:51:01;;;;;;;8.43;2.22;;;;;;;13.94;100.00;99983.91;4931446;29;20052;-90
2022/10/28 04:53:27;;;;;;;8.30;2.22;;;;;;;13.75;100.00;99974.50;4930667;29;20063;-91
2022/10/28 04:55:58;;;;;;;11.05;3.00;;;;;;;13.84;100.00;99976.56;4921503;29;20047;-91
2022/10/28 04:58:25;;;;;;;10.88;2.88;;;;;;;13.78;100.00;99982.22;4928886;29;20055;-90
2022/10/28 05:00:52;;;;;;;12.68;2.40;;;;;;;13.81;100.00;99966.25;4947108;29;20056;-91
2022/10/28 05:03:19;;;;;;;9.38;2.15;;;;;;;13.70;100.00;99967.84;4946749;29;20056;-91
2022/10/28 05:05:47;;;;;;;8.23;2.35;;;;;;;13.70;100.00;99975.75;4937345;29;20054;-89
2022/10/28 05:08:22;;;;;;;9.48;2.10;;;;;;;13.69;100.00;99974.91;4936777;29;20052;-96
2022/10/28 05:10:49;;;;;;;8.80;2.20;;;;;;;13.52;100.00;99956.72;4947267;29;20066;-94
2022/10/28 05:13:17;;;;;;;8.98;2.17;;;;;;;13.50;100.00;99955.97;4927465;29;20063;-96
2022/10/28 05:15:47;;;;;;;10.30;2.78;;;;;;;13.62;100.00;99984.13;4941164;29;20067;-96
2022/10/28 05:18:14;;;;;;;7.03;2.00;;;;;;;13.59;100.00;99989.56;4928899;29;20051;-96
2022/10/28 05:20:41;;;;;;;9.70;2.38;;;;;;;13.43;100.00;99977.38;4931562;29;20455;-94
2022/10/28 05:23:08;;;;;;;11.63;3.00;;;;;;;13.57;100.00;99991.47;4929928;29;20043;-96
2022/10/28 05:25:35;;;;;;;8.50;2.45;;;;;;;13.61;100.00;99972.75;4923689;29;20415;-91
2022/10/28 05:28:01;;;;;;;8.57;2.83;;;;;;;13.44;100.00;99950.13;4908168;29;20103;-92
2022/10/28 05:30:28;;;;;;;13.60;3.17;;;;;;;13.49;100.00;99949.84;4918151;29;20451;-95
2022/10/28 05:33:02;;;;;;;9.50;3.33;;;;;;;13.67;100.00;99961.03;4932667;29;20056;-89
2022/10/28 05:35:29;;;;;;;11.23;3.75;;;;;;;13.70;100.00;99967.84;4936583;29;20047;-91
2022/10/28 05:37:56;;;;;;;10.55;3.50;;;;;;;13.64;100.00;99955.94;4947544;29;20048;-92
2022/10/28 05:40:23;;;;;;;14.85;5.28;;;;;;;13.72;100.00;99955.44;4916478;29;20099;-91
2022/10/28 05:42:50;;;;;;;9.63;3.15;;;;;;;13.67;100.00;99947.88;4930851;29;20051;-91
2022/10/28 05:45:17;;;;;;;13.13;5.13;;;;;;;13.74;100.00;99943.03;4936695;29;20059;-96
2022/10/28 05:47:46;;;;;;;13.35;5.10;;;;;;;13.88;100.00;99956.16;4941117;29;20155;-96
2022/10/28 05:50:16;;;;;;;15.88;6.90;;;;;;;13.78;100.00;99931.41;4939741;29;20073;-96
2022/10/28 05:52:47;;;;;;;19.38;7.63;;;;;;;13.81;100.00;99918.03;4939180;29;20083;-95
2022/10/28 05:55:15;;;;;;;20.52;6.43;;;;;;;13.77;100.00;99919.16;4940151;29;20134;-91
2022/10/28 05:57:42;;;;;;;12.88;5.30;;;;;;;13.88;100.00;99939.53;4931759;29;20052;-90
2022/10/28 06:00:09;;;;;;;10.73;4.97;;;;;;;13.61;100.00;99907.00;4927653;29;20060;-91
2022/10/28 06:02:36;;;;;;;12.73;5.72;;;;;;;13.89;100.00;99942.06;4919512;29;20056;-92
2022/10/28 06:05:05;;;;;;;24.05;6.25;;;;;;;13.50;100.00;99898.94;4927691;29;20507;-90
2022/10/28 06:07:33;;;;;;;11.65;5.95;;;;;;;13.69;100.00;99898.63;4935256;29;20048;-95
2022/10/28 06:15:24;;;;;;;13.50;5.05;;;;;;;13.89;100.00;99897.34;5606575;23;20098;-90
2022/10/28 06:17:51;;;;;;;15.18;5.25;;;;;;;13.74;100.00;99877.25;4946293;29;20143;-87
2022/10/28 06:20:19;;;;;;;11.23;5.10;;;;;;;13.88;100.00;99921.13;4946366;29;20062;-96
2022/10/28 06:22:59;;;;;;;11.77;5.50;;;;;;;13.77;100.00;99906.03;5770130;23;20335;-91
2022/10/28 06:28:02;;;;;;;11.68;4.95;;;;;;;13.46;100.00;99850.97;5269726;23;20039;-92
2022/10/28 06:30:46;;;;;;;11.68;5.10;;;;;;;13.04;100.00;99784.34;4951640;29;20179;-88
2022/10/28 06:33:27;;;;;;;10.40;4.30;;;;;;;13.17;100.00;99842.25;4947966;29;20060;-89
2022/10/28 06:36:08;;;;;;;12.65;5.13;;;;;;;13.33;100.00;99868.44;4948926;29;20056;-90
2022/10/28 06:38:52;;;;;;;12.10;5.28;;;;;;;13.23;100.00;99839.25;4967953;28;20077;-90
2022/10/28 06:41:33;;;;;;;14.00;5.75;;;;;;;13.25;100.00;99878.56;4971696;29;20665;-89
2022/10/28 06:44:04;;;;;;;13.57;5.57;;;;;;;13.21;100.00;99861.28;4939886;29;20051;-87
2022/10/28 06:46:31;;;;;;;11.95;4.82;;;;;;;13.28;100.00;99883.66;4957673;29;20047;-88
2022/10/28 06:49:01;;;;;;;12.85;4.90;;;;;;;13.24;100.00;99879.50;4955038;29;20122;-88
2022/10/28 06:51:30;;;;;;;12.82;5.25;;;;;;;13.30;100.00;99863.38;4958027;29;20043;-86
2022/10/28 06:53:57;;;;;;;11.10;5.97;;;;;;;13.66;100.00;99885.66;4940661;29;20051;-88
2022/10/28 06:56:24;;;;;;;13.32;6.38;;;;;;;13.74;100.00;99885.16;4940100;29;20055;-88
2022/10/28 06:58:53;;;;;;;10.07;4.32;;;;;;;13.41;100.00;99826.75;4956040;29;20047;-89
2022/10/28 07:01:20;;;;;;;14.48;5.47;;;;;;;13.50;100.00;99856.03;4957434;28;20047;-88
2022/10/28 07:03:47;;;;;;;10.35;4.88;;;;;;;13.50;100.00;99837.63;4941508;29;20142;-88
2022/10/28 07:06:15;;;;;;;14.18;5.00;;;;;;;13.89;100.00;99896.50;4951496;28;20055;-88
2022/10/28 07:08:42;;;;;;;17.65;6.15;;;;;;;13.66;100.00;99847.03;4950086;29;20047;-88
2022/10/28 07:11:10;;;;;;;18.40;7.75;;;;;;;13.75;100.00;99842.13;4958239;29;20047;-88
2022/10/28 07:13:37;;;;;;;13.98;6.30;;;;;;;13.76;100.00;99849.09;4948525;29;20095;-89
2022/10/28 07:16:04;;;;;;;18.00;6.18;;;;;;;13.88;100.00;99871.94;4941393;29;20051;-89
2022/10/28 07:18:32;;;;;;;23.58;8.65;;;;;;;13.64;100.00;99843.66;4943042;29;20110;-89
2022/10/28 07:21:00;;;;;;;21.30;8.07;;;;;;;13.82;100.00;99854.78;4941386;28;20102;-87
2022/10/28 07:23:31;;;;;;;16.38;5.88;;;;;;;13.72;100.00;99823.91;4959042;29;20107;-90
2022/10/28 07:25:58;;;;;;;17.15;6.43;;;;;;;13.47;100.00;99779.03;4962718;28;20047;-90
2022/10/28 07:28:28;;;;;;;18.25;6.47;;;;;;;13.74;100.00;99832.53;4952053;28;20055;-91
2022/10/28 07:31:00;;;;;;;18.08;7.07;;;;;;;13.76;100.00;99807.84;4953229;28;20061;-91
2022/10/28 07:33:31;;;;;;;13.13;5.28;;;;;;;13.84;100.00;99796.81;4953909;29;20074;-92
2022/10/28 07:36:12;;;;;;;20.05;6.07;;;;;;;13.89;100.00;99812.28;4969146;28;20080;-91
2022/10/28 07:38:53;;;;;;;18.60;5.70;;;;;;;13.88;100.00;99816.69;4959050;29;20035;-92
2022/10/28 07:41:36;;;;;;;15.95;5.45;;;;;;;13.81;100.00;99786.47;4969273;28;20111;-91
2022/10/28 07:44:17;;;;;;;18.50;5.68;;;;;;;13.99;100.00;99808.94;4975837;28;20074;-93
2022/10/28 07:46:57;;;;;;;16.33;4.50;;;;;;;13.97;100.00;99781.03;4938776;29;20058;-90
2022/10/28 07:49:34;;;;;;;20.02;5.40;;;;;;;13.67;100.00;99754.03;4952879;29;20043;-90
2022/10/28 07:52:05;;;;;;;15.70;5.60;;;;;;;14.03;100.00;99799.91;4959632;28;20069;-91
2022/10/28 07:54:34;;;;;;;24.02;5.85;;;;;;;13.98;100.00;99816.94;4959450;28;20157;-90
2022/10/28 07:57:01;;;;;;;21.13;6.35;;;;;;;13.75;100.00;99789.53;4974526;28;20090;-89
2022/10/28 07:59:29;;;;;;;20.70;6.53;;;;;;;13.96;100.00;99814.41;4951802;29;20106;-91
2022/10/28 08:01:56;;;;;;;24.35;6.55;;;;;;;14.01;100.00;99822.84;4975325;28;20047;-91
2022/10/28 08:04:36;;;;;;;21.08;6.65;;;;;;;13.84;100.00;99795.00;4958657;29;20138;-90
2022/10/28 08:07:18;;;;;;;26.50;5.75;;;;;;;14.05;100.00;99826.13;4982161;28;20063;-90
2022/10/28 08:09:51;;;;;;;22.27;7.63;;;;;;;13.80;100.00;99785.63;4951941;29;20043;-90
2022/10/28 08:12:18;;;;;;;18.25;5.50;;;;;;;14.10;100.00;99820.56;4972078;28;20047;-92
2022/10/28 08:14:46;;;;;;;18.67;6.53;;;;;;;13.94;100.00;99783.88;4958115;28;20042;-90
2022/10/28 08:17:13;;;;;;;24.63;7.82;;;;;;;13.29;100.00;99681.09;4952743;29;20142;-89
2022/10/28 08:19:41;;;;;;;27.27;7.88;;;;;;;13.90;100.00;99793.78;4934578;29;20039;-89
2022/10/28 08:22:09;;;;;;;20.52;7.85;;;;;;;13.97;100.00;99786.28;4970726;28;20059;-90
2022/10/28 08:24:36;;;;;;;21.13;6.88;;;;;;;14.00;100.00;99783.47;4969153;28;20043;-89
2022/10/28 08:27:03;;;;;;;23.75;7.78;;;;;;;14.11;100.00;99786.25;4972455;28;20042;-89
2022/10/28 08:29:31;;;;;;;24.58;7.35;;;;;;;14.02;100.00;99784.19;4955152;28;20663;-89
2022/10/28 08:31:58;;;;;;;27.02;8.98;;;;;;;14.05;100.00;99789.28;4958487;28;20043;-89
2022/10/28 08:34:28;;;;;;;18.92;6.45;;;;;;;14.41;100.00;99811.41;4959008;28;20051;-90
2022/10/28 08:36:56;;;;;;;24.58;7.15;;;;;;;14.37;100.00;99808.13;4957416;29;20047;-90
2022/10/28 08:39:23;;;;;;;28.65;7.30;;;;;;;14.19;100.00;99789.19;4965480;28;20054;-90
2022/10/28 08:42:02;;;;;;;26.63;7.72;;;;;;;14.21;100.00;99778.53;4970983;28;20047;-90
2022/10/28 08:44:48;;;;;;;27.35;8.18;;;;;;;14.22;100.00;99804.78;4970825;28;20125;-89
2022/10/28 08:47:39;;;;;;;25.65;7.30;;;;;;;14.09;100.00;99766.22;4947841;28;20051;-89
2022/10/28 08:50:17;;;;;;;22.52;6.85;;;;;;;14.16;100.00;99784.13;4966929;28;20075;-90
2022/10/28 08:52:55;;;;;;;27.63;7.90;;;;;;;14.30;100.00;99806.88;4967094;29;20079;-90
2022/10/28 08:55:32;;;;;;;23.73;7.68;;;;;;;14.28;100.00;99777.19;4949650;29;20035;-90
2022/10/28 08:58:05;;;;;;;19.02;6.70;;;;;;;14.48;100.00;99809.22;4965281;28;20058;-90
2022/10/28 09:00:35;;;;;;;23.83;6.32;;;;;;;14.03;100.00;99763.03;4965070;29;20066;-88
2022/10/28 09:03:21;;;;;;;26.77;6.82;;;;;;;14.15;100.00;99800.03;4950662;29;20239;-88
2022/10/28 09:06:04;;;;;;;26.88;7.32;;;;;;;14.15;100.00;99807.94;4965410;28;20050;-90
2022/10/28 09:08:35;;;;;;;20.63;6.40;;;;;;;14.04;100.00;99777.03;4947958;29;20047;-90
2022/10/28 09:11:21;;;;;;;22.60;5.32;;;;;;;14.47;100.00;99813.63;4963215;29;20062;-90
2022/10/28 09:14:03;;;;;;;19.20;5.65;;;;;;;14.22;100.00;99751.28;4958950;29;20138;-88
2022/10/28 09:16:36;;;;;;;19.65;5.45;;;;;;;14.49;100.00;99780.13;4958238;29;20062;-88
2022/10/28 09:19:33;;;;;;;17.30;5.55;;;;;;;14.42;100.00;99770.97;4940758;29;20054;-88
2022/10/28 09:22:06;;;;;;;19.77;5.75;;;;;;;14.46;100.00;99767.16;4959230;28;20102;-86
2022/10/28 09:24:51;;;;;;;23.80;6.47;;;;;;;14.12;100.00;99745.78;4955324;29;20055;-88
2022/10/28 09:27:23;;;;;;;19.98;5.90;;;;;;;14.14;100.00;99738.63;4927043;29;20062;-89
2022/10/28 09:30:13;;;;;;;25.73;6.97;;;;;;;14.10;100.00;99718.75;4957452;29;20402;-88
2022/10/28 09:32:47;;;;;;;30.92;8.13;;;;;;;14.42;100.00;99744.63;4942713;29;20051;-89
2022/10/28 09:35:18;;;;;;;23.83;7.68;;;;;;;14.51;100.00;99751.88;4943269;29;20059;-87
2022/10/28 09:37:51;;;;;;;28.60;8.00;;;;;;;14.49;100.00;99742.44;4945844;29;20107;-90
2022/10/28 09:40:24;;;;;;;29.25;8.27;;;;;;;14.37;100.00;99742.31;4959061;29;20051;-88
2022/10/28 09:42:54;;;;;;;32.53;8.23;;;;;;;14.55;100.00;99753.34;4942179;29;20481;-88
2022/10/28 09:45:26;;;;;;;33.10;9.35;;;;;;;14.28;100.00;99718.41;4946313;29;20051;-89
2022/10/28 09:47:59;;;;;;;35.38;9.32;;;;;;;14.16;100.00;99728.00;4956921;29;20549;-88
2022/10/28 09:50:30;;;;;;;33.33;9.60;;;;;;;14.16;100.00;99730.63;4940478;29;20055;-88
2022/10/28 09:53:34;;;;;;;29.13;7.57;;;;;;;14.38;100.00;99766.88;4958428;29;20055;-86
2022/10/28 09:56:03;;;;;;;29.33;8.65;;;;;;;14.29;100.00;99722.72;4970196;28;20051;-88
2022/10/28 09:58:32;;;;;;;25.02;7.13;;;;;;;14.48;100.00;99754.72;4956236;28;20130;-88
2022/10/28 10:00:59;;;;;;;31.75;7.88;;;;;;;14.25;100.00;99711.56;4956943;29;20150;-87
2022/10/28 10:03:26;;;;;;;23.98;6.80;;;;;;;14.30;100.00;99685.75;4955369;29;20956;-88
2022/10/28 10:05:55;;;;;;;30.42;7.30;;;;;;;14.43;100.00;99699.75;4939676;29;20055;-88
2022/10/28 10:08:23;;;;;;;22.52;7.68;;;;;;;14.19;100.00;99669.88;4956775;29;20062;-89
2022/10/28 10:10:55;;;;;;;24.58;7.28;;;;;;;14.40;100.00;99702.59;4966813;28;20442;-88
2022/10/28 10:13:42;;;;;;;24.73;8.00;;;;;;;14.31;100.00;99673.47;4934694;29;20054;-88
2022/10/28 10:16:23;;;;;;;28.98;8.98;;;;;;;14.28;100.00;99681.56;4939889;29;20059;-88
2022/10/28 10:18:56;;;;;;;30.50;9.35;;;;;;;14.45;100.00;99710.19;4938890;29;20040;-88
2022/10/28 10:21:42;;;;;;;31.42;8.82;;;;;;;14.28;100.00;99660.50;4956675;29;20055;-88
2022/10/28 10:24:34;;;;;;;33.20;10.35;;;;;;;14.49;100.00;99695.03;4955034;28;20047;-88
2022/10/28 10:27:10;;;;;;;43.75;10.38;;;;;;;14.61;100.00;99665.22;4957853;28;20058;-88
2022/10/28 10:29:44;;;;;;;33.97;10.50;;;;;;;14.38;100.00;99651.00;4955995;28;20059;-88
2022/10/28 10:32:25;;;;;;;44.65;11.60;;;;;;;14.23;100.00;99619.53;4964458;29;20063;-91
2022/10/28 10:35:03;;;;;;;27.83;10.10;;;;;;;14.52;100.00;99640.34;4960028;29;20051;-92
2022/10/28 10:37:33;;;;;;;37.10;9.10;;;;;;;14.27;100.00;99614.91;4968004;29;20047;-90
2022/10/28 10:40:23;;;;;;;35.50;9.35;;;;;;;14.63;100.00;99647.50;4970154;29;20062;-88
2022/10/28 10:43:19;;;;;;;33.45;9.77;;;;;;;14.39;100.00;99642.13;4955440;29;20051;-90
2022/10/28 10:46:14;;;;;;;33.17;9.55;;;;;;;14.66;100.00;99657.81;4970870;29;20050;-90
2022/10/28 10:48:44;;;;;;;37.58;10.18;;;;;;;14.60;100.00;99655.59;4971206;29;20063;-90
2022/10/28 10:51:26;;;;;;;31.95;9.05;;;;;;;14.57;100.00;99661.91;4955376;29;20066;-91
2022/10/28 10:54:00;;;;;;;32.53;9.75;;;;;;;14.76;100.00;99636.91;4956163;29;20055;-90
2022/10/28 10:56:31;;;;;;;30.60;8.98;;;;;;;14.90;100.00;99655.19;4972031;29;20051;-89
2022/10/28 10:59:04;;;;;;;24.48;8.73;;;;;;;14.80;100.00;99602.31;4956714;29;20039;-91
2022/10/28 11:01:45;;;;;;;40.05;9.23;;;;;;;14.53;100.00;99573.50;4957098;29;20055;-91
2022/10/28 11:04:19;;;;;;;25.85;8.05;;;;;;;14.71;100.00;99620.59;4972679;28;20051;-91
2022/10/28 11:06:59;;;;;;;29.00;8.25;;;;;;;14.63;100.00;99557.09;4959413;29;20408;-91
2022/10/28 11:09:43;;;;;;;29.08;7.82;;;;;;;14.91;100.00;99604.16;4957590;29;20055;-90
2022/10/28 11:12:30;;;;;;;29.23;7.95;;;;;;;15.26;100.00;99620.94;4957994;29;20035;-90
2022/10/28 11:15:14;;;;;;;33.10;8.65;;;;;;;15.44;100.00;99658.28;4958418;29;20120;-90
2022/10/28 11:18:01;;;;;;;26.05;7.15;;;;;;;14.92;100.00;99555.75;4970668;29;20106;-90
2022/10/28 11:21:01;;;;;;;31.17;6.78;;;;;;;15.00;100.00;99534.13;4958562;29;20111;-92
2022/10/28 11:24:05;;;;;;;30.95;6.75;;;;;;;15.57;100.00;99593.09;4971729;29;20050;-92
2022/10/28 11:27:23;;;;;;;28.73;5.85;;;;;;;15.57;100.00;99614.19;4960030;28;20050;-91
2022/10/28 11:29:54;;;;;;;21.42;6.45;;;;;;;15.47;100.00;99578.91;4988838;28;20047;-89
2022/10/28 11:32:41;;;;;;;20.02;5.45;;;;;;;15.10;100.00;99573.78;4987047;28;20498;-90
2022/10/28 11:35:30;;;;;;;25.67;5.53;;;;;;;15.70;100.00;99598.25;4977398;28;20146;-90
2022/10/28 11:38:38;;;;;;;22.42;5.43;;;;;;;15.70;100.00;99574.50;4953665;29;20051;-90
2022/10/28 11:41:22;;;;;;;18.60;3.95;;;;;;;15.74;100.00;99583.88;4953732;29;20048;-91
2022/10/28 11:44:05;;;;;;;;;;;;;;;15.48;100.00;99581.44;4954854;29;20047;-88
2022/10/28 11:47:10;;;;;;;13.57;3.38;;;;;;;15.88;100.00;99567.84;4970050;29;19983;-90
2022/10/28 11:50:00;;;;;;;11.23;2.70;;;;;;;16.11;100.00;99571.31;4972313;28;20107;-90
2022/10/28 11:52:55;;;;;;;10.95;2.65;;;;;;;15.79;100.00;99583.56;4974416;29;20504;-90
2022/10/28 11:55:48;;;;;;;8.13;1.50;;;;;;;15.88;100.00;99580.19;4960054;29;20039;-88